sensor_id;sensor_type;location;lat;lon;timestamp;temperature;humidity
6696;DHT22;3385;48.928;10.330;2022-09-28T00:01:21;6.10;99.90
6696;DHT22;3385;48.928;10.330;2022-09-28T00:03:50;6.00;99.90
6696;DHT22;3385;48.928;10.330;2022-09-28T00:06:21;6.10;99.90
6696;DHT22;3385;48.928;10.330;2022-09-28T00:08:48;6.00;99.90
6696;DHT22;3385;48.928;10.330;2022-09-28T00:11:14;6.10;99.90
6696;DHT22;3385;48.928;10.330;2022-09-28T00:13:44;6.10;99.90
6696;DHT22;3385;48.928;10.330;2022-09-28T00:16:15;6.10;99.90
6696;DHT22;3385;48.928;10.330;2022-09-28T00:18:42;6.10;99.90
6696;DHT22;3385;48.928;10.330;2022-09-28T00:21:15;6.00;99.90
6696;DHT22;3385;48.928;10.330;2022-09-28T00:23:41;6.00;99.90
6696;DHT22;3385;48.928;10.330;2022-09-28T00:26:27;6.00;99.90
6696;DHT22;3385;48.928;10.330;2022-09-28T00:28:54;6.00;99.90
6696;DHT22;3385;48.928;10.330;2022-09-28T00:31:20;5.90;99.90
6696;DHT22;3385;48.928;10.330;2022-09-28T00:33:52;6.00;99.90
6696;DHT22;3385;48.928;10.330;2022-09-28T00:36:19;5.90;99.90
6696;DHT22;3385;48.928;10.330;2022-09-28T00:38:45;6.00;99.90
6696;DHT22;3385;48.928;10.330;2022-09-28T00:41:11;6.00;99.90
6696;DHT22;3385;48.928;10.330;2022-09-28T00:43:37;5.90;99.90
6696;DHT22;3385;48.928;10.330;2022-09-28T00:46:09;5.90;99.90
6696;DHT22;3385;48.928;10.330;2022-09-28T00:48:38;5.90;99.90
6696;DHT22;3385;48.928;10.330;2022-09-28T00:51:08;5.90;99.90
6696;DHT22;3385;48.928;10.330;2022-09-28T00:53:36;6.00;99.90
6696;DHT22;3385;48.928;10.330;2022-09-28T00:56:09;6.00;99.90
6696;DHT22;3385;48.928;10.330;2022-09-28T00:58:44;6.10;99.90
6696;DHT22;3385;48.928;10.330;2022-09-28T01:01:11;6.10;99.90
6696;DHT22;3385;48.928;10.330;2022-09-28T01:03:37;6.10;99.90
6696;DHT22;3385;48.928;10.330;2022-09-28T01:06:10;6.20;99.90
6696;DHT22;3385;48.928;10.330;2022-09-28T01:08:40;6.20;99.90
6696;DHT22;3385;48.928;10.330;2022-09-28T01:11:09;6.20;99.90
6696;DHT22;3385;48.928;10.330;2022-09-28T01:13:35;6.20;99.90
6696;DHT22;3385;48.928;10.330;2022-09-28T01:21:58;6.30;99.90
6696;DHT22;3385;48.928;10.330;2022-09-28T01:27:25;6.40;99.90
6696;DHT22;3385;48.928;10.330;2022-09-28T01:30:06;6.40;99.90
6696;DHT22;3385;48.928;10.330;2022-09-28T01:32:49;6.50;99.90
6696;DHT22;3385;48.928;10.330;2022-09-28T01:38:04;6.50;99.90
6696;DHT22;3385;48.928;10.330;2022-09-28T01:40:33;6.60;99.90
6696;DHT22;3385;48.928;10.330;2022-09-28T01:43:06;6.70;99.90
6696;DHT22;3385;48.928;10.330;2022-09-28T01:45:45;6.70;99.90
6696;DHT22;3385;48.928;10.330;2022-09-28T01:48:16;6.70;99.90
6696;DHT22;3385;48.928;10.330;2022-09-28T01:50:46;6.80;99.90
6696;DHT22;3385;48.928;10.330;2022-09-28T01:53:19;6.80;99.90
6696;DHT22;3385;48.928;10.330;2022-09-28T01:55:54;6.80;99.90
6696;DHT22;3385;48.928;10.330;2022-09-28T01:58:27;6.90;99.90
6696;DHT22;3385;48.928;10.330;2022-09-28T02:01:02;6.90;99.90
6696;DHT22;3385;48.928;10.330;2022-09-28T02:03:35;6.90;99.90
6696;DHT22;3385;48.928;10.330;2022-09-28T02:06:12;7.00;99.90
6696;DHT22;3385;48.928;10.330;2022-09-28T02:08:50;7.00;99.90
6696;DHT22;3385;48.928;10.330;2022-09-28T02:11:19;7.00;99.90
6696;DHT22;3385;48.928;10.330;2022-09-28T02:13:58;7.00;99.90
6696;DHT22;3385;48.928;10.330;2022-09-28T02:16:40;7.00;99.90
6696;DHT22;3385;48.928;10.330;2022-09-28T02:19:16;7.00;99.90
6696;DHT22;3385;48.928;10.330;2022-09-28T02:22:03;7.00;99.90
6696;DHT22;3385;48.928;10.330;2022-09-28T02:24:49;7.10;99.90
6696;DHT22;3385;48.928;10.330;2022-09-28T02:30:12;7.10;99.90
6696;DHT22;3385;48.928;10.330;2022-09-28T02:32:41;7.20;99.90
6696;DHT22;3385;48.928;10.330;2022-09-28T02:35:15;7.20;99.90
6696;DHT22;3385;48.928;10.330;2022-09-28T02:37:42;7.20;99.90
6696;DHT22;3385;48.928;10.330;2022-09-28T02:40:12;7.30;99.90
6696;DHT22;3385;48.928;10.330;2022-09-28T02:43:13;7.30;99.90
6696;DHT22;3385;48.928;10.330;2022-09-28T02:49:05;7.40;99.90
6696;DHT22;3385;48.928;10.330;2022-09-28T02:58:41;7.40;99.90
6696;DHT22;3385;48.928;10.330;2022-09-28T03:01:29;7.50;99.90
6696;DHT22;3385;48.928;10.330;2022-09-28T03:06:48;7.50;99.90
6696;DHT22;3385;48.928;10.330;2022-09-28T03:09:20;7.40;99.90
6696;DHT22;3385;48.928;10.330;2022-09-28T03:11:54;7.40;99.90
6696;DHT22;3385;48.928;10.330;2022-09-28T03:14:21;7.40;99.90
6696;DHT22;3385;48.928;10.330;2022-09-28T03:16:47;7.40;99.90
6696;DHT22;3385;48.928;10.330;2022-09-28T03:19:15;7.40;99.90
6696;DHT22;3385;48.928;10.330;2022-09-28T03:21:41;7.40;99.90
6696;DHT22;3385;48.928;10.330;2022-09-28T03:24:07;7.40;99.90
6696;DHT22;3385;48.928;10.330;2022-09-28T03:26:37;7.40;99.90
6696;DHT22;3385;48.928;10.330;2022-09-28T03:29:03;7.40;99.90
6696;DHT22;3385;48.928;10.330;2022-09-28T03:31:29;7.50;99.90
6696;DHT22;3385;48.928;10.330;2022-09-28T03:33:55;7.50;99.90
6696;DHT22;3385;48.928;10.330;2022-09-28T03:36:20;7.40;99.90
6696;DHT22;3385;48.928;10.330;2022-09-28T03:38:46;7.40;99.90
6696;DHT22;3385;48.928;10.330;2022-09-28T03:41:12;7.30;99.90
6696;DHT22;3385;48.928;10.330;2022-09-28T03:43:37;7.30;99.90
6696;DHT22;3385;48.928;10.330;2022-09-28T03:46:03;7.40;99.90
6696;DHT22;3385;48.928;10.330;2022-09-28T03:48:34;7.40;99.90
6696;DHT22;3385;48.928;10.330;2022-09-28T03:51:05;7.40;99.90
6696;DHT22;3385;48.928;10.330;2022-09-28T03:53:32;7.40;99.90
6696;DHT22;3385;48.928;10.330;2022-09-28T03:56:06;7.50;99.90
6696;DHT22;3385;48.928;10.330;2022-09-28T03:58:33;7.50;99.90
6696;DHT22;3385;48.928;10.330;2022-09-28T04:01:08;7.50;99.90
6696;DHT22;3385;48.928;10.330;2022-09-28T04:03:34;7.60;99.90
6696;DHT22;3385;48.928;10.330;2022-09-28T04:06:00;7.60;99.90
6696;DHT22;3385;48.928;10.330;2022-09-28T04:08:26;7.50;99.90
6696;DHT22;3385;48.928;10.330;2022-09-28T04:10:55;7.60;99.90
6696;DHT22;3385;48.928;10.330;2022-09-28T04:13:21;7.50;99.90
6696;DHT22;3385;48.928;10.330;2022-09-28T04:15:54;7.50;99.90
6696;DHT22;3385;48.928;10.330;2022-09-28T04:18:21;7.50;99.90
6696;DHT22;3385;48.928;10.330;2022-09-28T04:20:47;7.60;99.90
6696;DHT22;3385;48.928;10.330;2022-09-28T04:23:16;7.60;99.90
6696;DHT22;3385;48.928;10.330;2022-09-28T04:25:42;7.60;99.90
6696;DHT22;3385;48.928;10.330;2022-09-28T04:28:12;7.60;99.90
6696;DHT22;3385;48.928;10.330;2022-09-28T04:30:56;7.60;99.90
6696;DHT22;3385;48.928;10.330;2022-09-28T04:33:22;7.60;99.90
6696;DHT22;3385;48.928;10.330;2022-09-28T04:35:47;7.60;99.90
6696;DHT22;3385;48.928;10.330;2022-09-28T04:38:13;7.60;99.90
6696;DHT22;3385;48.928;10.330;2022-09-28T04:40:39;7.60;99.90
6696;DHT22;3385;48.928;10.330;2022-09-28T04:43:04;7.70;99.90
6696;DHT22;3385;48.928;10.330;2022-09-28T04:45:30;7.60;99.90
6696;DHT22;3385;48.928;10.330;2022-09-28T04:47:56;7.70;99.90
6696;DHT22;3385;48.928;10.330;2022-09-28T04:50:21;7.80;99.90
6696;DHT22;3385;48.928;10.330;2022-09-28T04:52:47;7.70;99.90
6696;DHT22;3385;48.928;10.330;2022-09-28T04:55:13;7.70;99.90
6696;DHT22;3385;48.928;10.330;2022-09-28T04:57:39;7.70;99.90
6696;DHT22;3385;48.928;10.330;2022-09-28T05:00:06;7.70;99.90
6696;DHT22;3385;48.928;10.330;2022-09-28T05:02:33;7.80;99.90
6696;DHT22;3385;48.928;10.330;2022-09-28T05:04:58;7.80;99.90
6696;DHT22;3385;48.928;10.330;2022-09-28T05:07:25;7.80;99.90
6696;DHT22;3385;48.928;10.330;2022-09-28T05:09:51;7.90;99.90
6696;DHT22;3385;48.928;10.330;2022-09-28T05:12:17;7.90;99.90
6696;DHT22;3385;48.928;10.330;2022-09-28T05:14:44;7.60;99.90
6696;DHT22;3385;48.928;10.330;2022-09-28T05:17:09;7.40;99.90
6696;DHT22;3385;48.928;10.330;2022-09-28T05:19:35;7.30;99.90
6696;DHT22;3385;48.928;10.330;2022-09-28T05:22:01;7.20;99.90
6696;DHT22;3385;48.928;10.330;2022-09-28T05:24:32;7.20;99.90
6696;DHT22;3385;48.928;10.330;2022-09-28T05:26:57;7.20;99.90
6696;DHT22;3385;48.928;10.330;2022-09-28T05:29:23;7.10;99.90
6696;DHT22;3385;48.928;10.330;2022-09-28T05:31:49;7.10;99.90
6696;DHT22;3385;48.928;10.330;2022-09-28T05:34:14;7.20;99.90
6696;DHT22;3385;48.928;10.330;2022-09-28T05:36:40;7.20;99.90
6696;DHT22;3385;48.928;10.330;2022-09-28T05:39:07;7.20;99.90
6696;DHT22;3385;48.928;10.330;2022-09-28T05:41:34;7.20;99.90
6696;DHT22;3385;48.928;10.330;2022-09-28T05:44:00;7.20;99.90
6696;DHT22;3385;48.928;10.330;2022-09-28T05:46:26;7.20;99.90
6696;DHT22;3385;48.928;10.330;2022-09-28T05:48:51;7.20;99.90
6696;DHT22;3385;48.928;10.330;2022-09-28T05:51:18;7.20;99.90
6696;DHT22;3385;48.928;10.330;2022-09-28T05:53:44;7.20;99.90
6696;DHT22;3385;48.928;10.330;2022-09-28T05:56:10;7.20;99.90
6696;DHT22;3385;48.928;10.330;2022-09-28T05:58:36;7.20;99.90
6696;DHT22;3385;48.928;10.330;2022-09-28T06:01:02;7.10;99.90
6696;DHT22;3385;48.928;10.330;2022-09-28T06:03:28;7.10;99.90
6696;DHT22;3385;48.928;10.330;2022-09-28T06:05:53;7.00;99.90
6696;DHT22;3385;48.928;10.330;2022-09-28T06:08:19;7.10;99.90
6696;DHT22;3385;48.928;10.330;2022-09-28T06:10:46;7.10;99.90
6696;DHT22;3385;48.928;10.330;2022-09-28T06:13:12;7.10;99.90
6696;DHT22;3385;48.928;10.330;2022-09-28T06:15:40;7.10;99.90
6696;DHT22;3385;48.928;10.330;2022-09-28T06:18:09;7.20;99.90
6696;DHT22;3385;48.928;10.330;2022-09-28T06:20:37;7.10;99.90
6696;DHT22;3385;48.928;10.330;2022-09-28T06:23:04;7.10;99.90
6696;DHT22;3385;48.928;10.330;2022-09-28T06:25:29;7.10;99.90
6696;DHT22;3385;48.928;10.330;2022-09-28T06:27:56;7.10;99.90
6696;DHT22;3385;48.928;10.330;2022-09-28T06:30:22;7.10;99.90
6696;DHT22;3385;48.928;10.330;2022-09-28T06:32:52;7.20;99.90
6696;DHT22;3385;48.928;10.330;2022-09-28T06:35:20;7.20;99.90
6696;DHT22;3385;48.928;10.330;2022-09-28T06:37:46;7.20;99.90
6696;DHT22;3385;48.928;10.330;2022-09-28T06:40:12;7.10;99.90
6696;DHT22;3385;48.928;10.330;2022-09-28T06:42:38;7.10;99.90
6696;DHT22;3385;48.928;10.330;2022-09-28T06:45:04;7.10;99.90
6696;DHT22;3385;48.928;10.330;2022-09-28T06:47:31;7.10;99.90
6696;DHT22;3385;48.928;10.330;2022-09-28T06:49:58;7.10;99.90
6696;DHT22;3385;48.928;10.330;2022-09-28T06:52:24;7.10;99.90
6696;DHT22;3385;48.928;10.330;2022-09-28T06:54:50;7.20;99.90
6696;DHT22;3385;48.928;10.330;2022-09-28T06:57:16;7.20;99.90
6696;DHT22;3385;48.928;10.330;2022-09-28T06:59:41;7.30;99.90
6696;DHT22;3385;48.928;10.330;2022-09-28T07:02:11;7.30;99.90
6696;DHT22;3385;48.928;10.330;2022-09-28T07:04:40;7.30;99.90
6696;DHT22;3385;48.928;10.330;2022-09-28T07:07:09;7.30;99.90
6696;DHT22;3385;48.928;10.330;2022-09-28T07:09:35;7.30;99.90
6696;DHT22;3385;48.928;10.330;2022-09-28T07:12:02;7.30;99.90
6696;DHT22;3385;48.928;10.330;2022-09-28T07:14:32;7.30;99.90
6696;DHT22;3385;48.928;10.330;2022-09-28T07:16:58;7.20;99.90
6696;DHT22;3385;48.928;10.330;2022-09-28T07:19:24;5.40;99.90
6696;DHT22;3385;48.928;10.330;2022-09-28T07:21:53;7.40;99.90
6696;DHT22;3385;48.928;10.330;2022-09-28T07:24:19;7.40;99.90
6696;DHT22;3385;48.928;10.330;2022-09-28T07:26:44;7.40;99.90
6696;DHT22;3385;48.928;10.330;2022-09-28T07:29:11;7.50;99.90
6696;DHT22;3385;48.928;10.330;2022-09-28T07:31:38;7.60;99.90
6696;DHT22;3385;48.928;10.330;2022-09-28T07:34:03;7.60;99.90
6696;DHT22;3385;48.928;10.330;2022-09-28T07:36:31;7.70;99.90
6696;DHT22;3385;48.928;10.330;2022-09-28T07:39:01;7.70;99.90
6696;DHT22;3385;48.928;10.330;2022-09-28T07:41:30;7.80;99.90
6696;DHT22;3385;48.928;10.330;2022-09-28T07:44:00;7.90;99.90
6696;DHT22;3385;48.928;10.330;2022-09-28T07:46:35;7.90;99.90
6696;DHT22;3385;48.928;10.330;2022-09-28T07:49:01;7.90;99.90
6696;DHT22;3385;48.928;10.330;2022-09-28T07:51:30;8.00;99.90
6696;DHT22;3385;48.928;10.330;2022-09-28T07:53:56;8.00;99.90
6696;DHT22;3385;48.928;10.330;2022-09-28T07:56:22;7.90;99.90
6696;DHT22;3385;48.928;10.330;2022-09-28T07:58:48;7.90;99.90
6696;DHT22;3385;48.928;10.330;2022-09-28T08:01:17;7.80;99.90
6696;DHT22;3385;48.928;10.330;2022-09-28T08:03:44;7.80;99.90
6696;DHT22;3385;48.928;10.330;2022-09-28T08:06:13;7.90;99.90
6696;DHT22;3385;48.928;10.330;2022-09-28T08:08:39;8.00;99.90
6696;DHT22;3385;48.928;10.330;2022-09-28T08:11:13;8.00;99.90
6696;DHT22;3385;48.928;10.330;2022-09-28T08:13:39;8.10;99.90
6696;DHT22;3385;48.928;10.330;2022-09-28T08:16:05;8.20;99.90
6696;DHT22;3385;48.928;10.330;2022-09-28T08:18:36;8.20;99.90
6696;DHT22;3385;48.928;10.330;2022-09-28T08:21:03;8.20;99.90
6696;DHT22;3385;48.928;10.330;2022-09-28T08:23:48;8.30;99.90
6696;DHT22;3385;48.928;10.330;2022-09-28T08:26:14;8.40;99.90
6696;DHT22;3385;48.928;10.330;2022-09-28T08:28:41;8.50;99.90
6696;DHT22;3385;48.928;10.330;2022-09-28T08:31:08;8.50;99.90
6696;DHT22;3385;48.928;10.330;2022-09-28T08:33:34;8.70;99.90
6696;DHT22;3385;48.928;10.330;2022-09-28T08:36:00;8.70;99.90
6696;DHT22;3385;48.928;10.330;2022-09-28T08:38:27;8.80;99.90
6696;DHT22;3385;48.928;10.330;2022-09-28T08:46:45;9.00;99.90
6696;DHT22;3385;48.928;10.330;2022-09-28T08:52:04;9.10;99.90
6696;DHT22;3385;48.928;10.330;2022-09-28T08:57:32;9.40;99.90
6696;DHT22;3385;48.928;10.330;2022-09-28T09:00:03;9.30;99.90
6696;DHT22;3385;48.928;10.330;2022-09-28T09:02:31;9.30;99.90
6696;DHT22;3385;48.928;10.330;2022-09-28T09:05:03;9.40;99.90
6696;DHT22;3385;48.928;10.330;2022-09-28T09:13:59;9.50;99.90
6696;DHT22;3385;48.928;10.330;2022-09-28T09:21:41;9.60;99.90
6696;DHT22;3385;48.928;10.330;2022-09-28T09:24:26;9.50;99.90
6696;DHT22;3385;48.928;10.330;2022-09-28T09:30:14;9.50;99.90
6696;DHT22;3385;48.928;10.330;2022-09-28T09:33:09;9.60;99.90
6696;DHT22;3385;48.928;10.330;2022-09-28T09:35:46;9.70;99.90
6696;DHT22;3385;48.928;10.330;2022-09-28T09:38:40;10.00;99.90
6696;DHT22;3385;48.928;10.330;2022-09-28T09:41:19;10.10;99.90
6696;DHT22;3385;48.928;10.330;2022-09-28T09:46:35;10.20;99.90
6696;DHT22;3385;48.928;10.330;2022-09-28T09:49:14;10.40;99.90
6696;DHT22;3385;48.928;10.330;2022-09-28T09:51:52;10.40;99.90
6696;DHT22;3385;48.928;10.330;2022-09-28T09:54:21;10.40;99.90
6696;DHT22;3385;48.928;10.330;2022-09-28T09:56:55;10.50;99.90
6696;DHT22;3385;48.928;10.330;2022-09-28T09:59:27;10.50;99.90
6696;DHT22;3385;48.928;10.330;2022-09-28T10:02:01;10.30;99.90
6696;DHT22;3385;48.928;10.330;2022-09-28T10:04:32;10.40;99.90
6696;DHT22;3385;48.928;10.330;2022-09-28T10:07:03;10.30;99.90
6696;DHT22;3385;48.928;10.330;2022-09-28T10:09:38;10.20;99.90
6696;DHT22;3385;48.928;10.330;2022-09-28T10:12:08;10.20;99.90
6696;DHT22;3385;48.928;10.330;2022-09-28T10:14:35;10.20;99.90
6696;DHT22;3385;48.928;10.330;2022-09-28T10:17:02;10.30;99.90
6696;DHT22;3385;48.928;10.330;2022-09-28T10:19:31;10.30;99.90
6696;DHT22;3385;48.928;10.330;2022-09-28T10:21:59;10.30;99.90
6696;DHT22;3385;48.928;10.330;2022-09-28T10:24:39;10.30;99.90
6696;DHT22;3385;48.928;10.330;2022-09-28T10:27:21;10.50;99.90
6696;DHT22;3385;48.928;10.330;2022-09-28T10:32:44;10.80;99.90
6696;DHT22;3385;48.928;10.330;2022-09-28T10:35:25;10.80;99.90
6696;DHT22;3385;48.928;10.330;2022-09-28T10:37:58;10.90;99.90
6696;DHT22;3385;48.928;10.330;2022-09-28T10:40:28;10.80;99.90
6696;DHT22;3385;48.928;10.330;2022-09-28T10:43:05;10.60;99.90
6696;DHT22;3385;48.928;10.330;2022-09-28T10:45:36;10.50;99.90
6696;DHT22;3385;48.928;10.330;2022-09-28T10:48:21;10.50;99.90
6696;DHT22;3385;48.928;10.330;2022-09-28T10:51:05;10.60;99.90
6696;DHT22;3385;48.928;10.330;2022-09-28T10:53:32;10.70;99.90
6696;DHT22;3385;48.928;10.330;2022-09-28T10:56:27;10.70;99.90
6696;DHT22;3385;48.928;10.330;2022-09-28T10:58:51;10.80;99.90
6696;DHT22;3385;48.928;10.330;2022-09-28T11:01:21;11.00;99.90
6696;DHT22;3385;48.928;10.330;2022-09-28T11:03:58;11.10;99.90
6696;DHT22;3385;48.928;10.330;2022-09-28T11:06:30;11.30;99.90
6696;DHT22;3385;48.928;10.330;2022-09-28T11:09:01;11.30;99.90
6696;DHT22;3385;48.928;10.330;2022-09-28T11:11:27;11.40;99.90
6696;DHT22;3385;48.928;10.330;2022-09-28T11:13:58;11.30;99.90
6696;DHT22;3385;48.928;10.330;2022-09-28T11:16:31;11.40;99.90
6696;DHT22;3385;48.928;10.330;2022-09-28T11:19:22;11.20;99.90
6696;DHT22;3385;48.928;10.330;2022-09-28T11:21:47;11.30;99.90
6696;DHT22;3385;48.928;10.330;2022-09-28T11:24:21;11.30;99.90
6696;DHT22;3385;48.928;10.330;2022-09-28T11:26:51;11.30;99.90
6696;DHT22;3385;48.928;10.330;2022-09-28T11:31:47;11.30;99.90
6696;DHT22;3385;48.928;10.330;2022-09-28T11:37:34;11.60;99.90
6696;DHT22;3385;48.928;10.330;2022-09-28T11:46:29;12.50;99.90
6696;DHT22;3385;48.928;10.330;2022-09-28T11:52:11;12.40;99.90
6696;DHT22;3385;48.928;10.330;2022-09-28T11:54:58;12.10;99.90
6696;DHT22;3385;48.928;10.330;2022-09-28T11:57:29;12.10;99.90
6696;DHT22;3385;48.928;10.330;2022-09-28T11:59:59;12.00;99.90
6696;DHT22;3385;48.928;10.330;2022-09-28T12:02:38;12.10;99.90
6696;DHT22;3385;48.928;10.330;2022-09-28T12:05:18;12.20;99.90
6696;DHT22;3385;48.928;10.330;2022-09-28T12:10:41;14.20;99.90
6696;DHT22;3385;48.928;10.330;2022-09-28T12:13:17;14.90;99.90
6696;DHT22;3385;48.928;10.330;2022-09-28T12:16:06;14.90;99.90
6696;DHT22;3385;48.928;10.330;2022-09-28T12:18:49;14.80;99.90
6696;DHT22;3385;48.928;10.330;2022-09-28T12:23:45;13.80;99.90
6696;DHT22;3385;48.928;10.330;2022-09-28T12:26:33;13.50;99.90
6696;DHT22;3385;48.928;10.330;2022-09-28T12:29:05;13.10;99.90
6696;DHT22;3385;48.928;10.330;2022-09-28T12:34:21;13.00;99.90
6696;DHT22;3385;48.928;10.330;2022-09-28T12:37:14;13.30;99.90
6696;DHT22;3385;48.928;10.330;2022-09-28T12:39:46;13.60;99.90
6696;DHT22;3385;48.928;10.330;2022-09-28T12:42:39;13.60;99.90
6696;DHT22;3385;48.928;10.330;2022-09-28T12:53:38;13.40;99.90
6696;DHT22;3385;48.928;10.330;2022-09-28T13:09:27;12.80;99.90
6696;DHT22;3385;48.928;10.330;2022-09-28T13:12:16;12.80;99.90
6696;DHT22;3385;48.928;10.330;2022-09-28T13:17:45;13.30;99.90
6696;DHT22;3385;48.928;10.330;2022-09-28T13:20:33;13.50;99.90
6696;DHT22;3385;48.928;10.330;2022-09-28T13:23:20;13.70;99.90
6696;DHT22;3385;48.928;10.330;2022-09-28T13:26:23;14.40;99.90
6696;DHT22;3385;48.928;10.330;2022-09-28T13:28:49;14.60;99.90
6696;DHT22;3385;48.928;10.330;2022-09-28T13:31:22;14.50;99.90
6696;DHT22;3385;48.928;10.330;2022-09-28T13:33:52;14.20;99.90
6696;DHT22;3385;48.928;10.330;2022-09-28T13:38:54;13.40;99.90
6696;DHT22;3385;48.928;10.330;2022-09-28T13:41:31;13.00;99.90
6696;DHT22;3385;48.928;10.330;2022-09-28T13:47:05;12.60;99.90
6696;DHT22;3385;48.928;10.330;2022-09-28T13:52:41;12.60;99.90
6696;DHT22;3385;48.928;10.330;2022-09-28T13:55:32;12.40;99.90
6696;DHT22;3385;48.928;10.330;2022-09-28T14:01:03;12.30;99.90
6696;DHT22;3385;48.928;10.330;2022-09-28T14:03:53;12.10;99.90
6696;DHT22;3385;48.928;10.330;2022-09-28T14:06:30;12.10;99.90
6696;DHT22;3385;48.928;10.330;2022-09-28T14:09:06;12.00;99.90
6696;DHT22;3385;48.928;10.330;2022-09-28T14:14:05;11.80;99.90
6696;DHT22;3385;48.928;10.330;2022-09-28T14:16:49;11.80;99.90
6696;DHT22;3385;48.928;10.330;2022-09-28T14:19:24;11.60;99.90
6696;DHT22;3385;48.928;10.330;2022-09-28T14:29:43;11.50;99.90
6696;DHT22;3385;48.928;10.330;2022-09-28T14:34:47;11.60;99.90
6696;DHT22;3385;48.928;10.330;2022-09-28T14:37:38;11.60;99.90
6696;DHT22;3385;48.928;10.330;2022-09-28T14:40:28;11.60;99.90
6696;DHT22;3385;48.928;10.330;2022-09-28T14:56:25;10.80;99.90
6696;DHT22;3385;48.928;10.330;2022-09-28T14:58:54;11.70;99.90
6696;DHT22;3385;48.928;10.330;2022-09-28T15:01:22;11.70;99.90
6696;DHT22;3385;48.928;10.330;2022-09-28T15:03:54;11.60;99.90
6696;DHT22;3385;48.928;10.330;2022-09-28T15:06:24;11.60;99.90
6696;DHT22;3385;48.928;10.330;2022-09-28T15:08:52;11.60;99.90
6696;DHT22;3385;48.928;10.330;2022-09-28T15:11:23;11.50;99.90
6696;DHT22;3385;48.928;10.330;2022-09-28T15:13:50;11.40;99.90
6696;DHT22;3385;48.928;10.330;2022-09-28T15:16:29;11.30;99.90
6696;DHT22;3385;48.928;10.330;2022-09-28T15:21:43;11.30;99.90
6696;DHT22;3385;48.928;10.330;2022-09-28T15:24:29;11.40;99.90
6696;DHT22;3385;48.928;10.330;2022-09-28T15:26:57;11.40;99.90
6696;DHT22;3385;48.928;10.330;2022-09-28T15:29:23;11.20;99.90
6696;DHT22;3385;48.928;10.330;2022-09-28T15:31:51;11.10;99.90
6696;DHT22;3385;48.928;10.330;2022-09-28T15:37:15;11.00;99.90
6696;DHT22;3385;48.928;10.330;2022-09-28T15:39:41;10.90;99.90
6696;DHT22;3385;48.928;10.330;2022-09-28T15:42:08;10.80;99.90
6696;DHT22;3385;48.928;10.330;2022-09-28T15:44:35;10.70;99.90
6696;DHT22;3385;48.928;10.330;2022-09-28T15:47:16;10.70;99.90
6696;DHT22;3385;48.928;10.330;2022-09-28T15:49:56;10.60;99.90
6696;DHT22;3385;48.928;10.330;2022-09-28T15:52:38;10.60;99.90
6696;DHT22;3385;48.928;10.330;2022-09-28T15:55:34;10.60;99.90
6696;DHT22;3385;48.928;10.330;2022-09-28T15:58:14;10.60;99.90
6696;DHT22;3385;48.928;10.330;2022-09-28T16:00:42;10.60;99.90
6696;DHT22;3385;48.928;10.330;2022-09-28T16:14:03;10.50;99.90
6696;DHT22;3385;48.928;10.330;2022-09-28T16:19:03;10.40;99.90
6696;DHT22;3385;48.928;10.330;2022-09-28T16:24:04;10.10;99.90
6696;DHT22;3385;48.928;10.330;2022-09-28T16:26:33;9.80;99.90
6696;DHT22;3385;48.928;10.330;2022-09-28T16:29:06;9.50;99.90
6696;DHT22;3385;48.928;10.330;2022-09-28T16:31:33;9.20;99.90
6696;DHT22;3385;48.928;10.330;2022-09-28T16:34:14;8.90;99.90
6696;DHT22;3385;48.928;10.330;2022-09-28T16:36:43;8.60;99.90
6696;DHT22;3385;48.928;10.330;2022-09-28T16:39:11;8.40;99.90
6696;DHT22;3385;48.928;10.330;2022-09-28T16:41:36;8.30;99.90
6696;DHT22;3385;48.928;10.330;2022-09-28T16:44:17;8.30;99.90
6696;DHT22;3385;48.928;10.330;2022-09-28T16:46:44;8.20;99.90
6696;DHT22;3385;48.928;10.330;2022-09-28T16:49:13;8.20;99.90
6696;DHT22;3385;48.928;10.330;2022-09-28T16:51:45;8.20;99.90
6696;DHT22;3385;48.928;10.330;2022-09-28T16:54:16;8.20;99.90
6696;DHT22;3385;48.928;10.330;2022-09-28T16:57:03;8.10;99.90
6696;DHT22;3385;48.928;10.330;2022-09-28T16:59:29;8.00;99.90
6696;DHT22;3385;48.928;10.330;2022-09-28T17:01:55;8.00;99.90
6696;DHT22;3385;48.928;10.330;2022-09-28T17:04:24;7.90;99.90
6696;DHT22;3385;48.928;10.330;2022-09-28T17:06:51;7.90;99.90
6696;DHT22;3385;48.928;10.330;2022-09-28T17:09:19;7.90;99.90
6696;DHT22;3385;48.928;10.330;2022-09-28T17:11:45;7.90;99.90
6696;DHT22;3385;48.928;10.330;2022-09-28T17:14:11;7.80;99.90
6696;DHT22;3385;48.928;10.330;2022-09-28T17:16:37;7.80;99.90
6696;DHT22;3385;48.928;10.330;2022-09-28T17:19:18;7.80;99.90
6696;DHT22;3385;48.928;10.330;2022-09-28T17:21:44;7.70;99.90
6696;DHT22;3385;48.928;10.330;2022-09-28T17:24:10;7.70;99.90
6696;DHT22;3385;48.928;10.330;2022-09-28T17:26:36;7.70;99.90
6696;DHT22;3385;48.928;10.330;2022-09-28T17:29:05;7.70;99.90
6696;DHT22;3385;48.928;10.330;2022-09-28T17:31:34;7.60;99.90
6696;DHT22;3385;48.928;10.330;2022-09-28T17:34:02;7.50;99.90
6696;DHT22;3385;48.928;10.330;2022-09-28T17:36:27;7.50;99.90
6696;DHT22;3385;48.928;10.330;2022-09-28T17:38:54;7.40;99.90
6696;DHT22;3385;48.928;10.330;2022-09-28T17:41:21;7.30;99.90
6696;DHT22;3385;48.928;10.330;2022-09-28T17:43:47;7.30;99.90
6696;DHT22;3385;48.928;10.330;2022-09-28T17:46:29;7.20;99.90
6696;DHT22;3385;48.928;10.330;2022-09-28T17:48:57;7.20;99.90
6696;DHT22;3385;48.928;10.330;2022-09-28T17:51:30;7.30;99.90
6696;DHT22;3385;48.928;10.330;2022-09-28T17:53:57;7.20;99.90
6696;DHT22;3385;48.928;10.330;2022-09-28T17:56:26;7.20;99.90
6696;DHT22;3385;48.928;10.330;2022-09-28T17:58:52;7.10;99.90
6696;DHT22;3385;48.928;10.330;2022-09-28T18:01:18;7.00;99.90
6696;DHT22;3385;48.928;10.330;2022-09-28T18:03:45;7.00;99.90
6696;DHT22;3385;48.928;10.330;2022-09-28T18:06:15;7.10;99.90
6696;DHT22;3385;48.928;10.330;2022-09-28T18:08:44;7.10;99.90
6696;DHT22;3385;48.928;10.330;2022-09-28T18:11:11;7.20;99.90
6696;DHT22;3385;48.928;10.330;2022-09-28T18:13:37;7.20;99.90
6696;DHT22;3385;48.928;10.330;2022-09-28T18:16:04;7.20;99.90
6696;DHT22;3385;48.928;10.330;2022-09-28T18:18:30;7.10;99.90
6696;DHT22;3385;48.928;10.330;2022-09-28T18:21:00;7.20;99.90
6696;DHT22;3385;48.928;10.330;2022-09-28T18:23:25;7.10;99.90
6696;DHT22;3385;48.928;10.330;2022-09-28T18:25:51;7.10;99.90
6696;DHT22;3385;48.928;10.330;2022-09-28T18:28:17;7.00;99.90
6696;DHT22;3385;48.928;10.330;2022-09-28T18:30:44;6.90;99.90
6696;DHT22;3385;48.928;10.330;2022-09-28T18:33:11;6.80;99.90
6696;DHT22;3385;48.928;10.330;2022-09-28T18:35:37;6.70;99.90
6696;DHT22;3385;48.928;10.330;2022-09-28T18:38:04;6.60;99.90
6696;DHT22;3385;48.928;10.330;2022-09-28T18:40:31;6.50;99.90
6696;DHT22;3385;48.928;10.330;2022-09-28T18:42:57;6.40;99.90
6696;DHT22;3385;48.928;10.330;2022-09-28T18:45:23;6.40;99.90
6696;DHT22;3385;48.928;10.330;2022-09-28T18:47:49;6.50;99.90
6696;DHT22;3385;48.928;10.330;2022-09-28T18:50:14;6.50;99.90
6696;DHT22;3385;48.928;10.330;2022-09-28T18:52:42;6.50;99.90
6696;DHT22;3385;48.928;10.330;2022-09-28T18:55:09;6.50;99.90
6696;DHT22;3385;48.928;10.330;2022-09-28T18:57:35;6.60;99.90
6696;DHT22;3385;48.928;10.330;2022-09-28T19:00:04;7.40;99.90
6696;DHT22;3385;48.928;10.330;2022-09-28T19:02:30;6.80;99.90
6696;DHT22;3385;48.928;10.330;2022-09-28T19:04:56;6.80;99.90
6696;DHT22;3385;48.928;10.330;2022-09-28T19:07:23;6.80;99.90